Time,TemperatureF,DewpointF,PressureIn,WindDirection,WindDirectionDegrees,WindSpeedMPH,WindSpeedGustMPH,Humidity,HourlyPrecipIn,Conditions,Clouds,dailyrainin,SoftwareType,DateUTC
2013-05-11 00:11:00,62.5,52.0,30.04,NW,322,0.0,0.0,68,0.00,,,0.00,weatherlink.com 1.10,2013-05-11 07:11:00,
2013-05-11 00:27:00,62.1,52.0,30.04,NW,322,0.0,0.0,70,0.00,,,0.00,weatherlink.com 1.10,2013-05-11 07:27:00,
2013-05-11 00:42:00,63.2,51.0,30.04,NW,322,0.0,0.0,64,0.00,,,0.00,weatherlink.com 1.10,2013-05-11 07:42:00,
2013-05-11 00:57:00,63.2,51.0,30.04,NW,322,0.0,0.0,65,0.00,,,0.00,weatherlink.com 1.10,2013-05-11 07:57:00,
2013-05-11 01:12:00,60.7,51.0,30.05,NW,322,0.0,0.0,70,0.00,,,0.00,weatherlink.com 1.10,2013-05-11 08:12:00,
2013-05-11 01:27:00,59.7,51.0,30.05,NW,322,0.0,0.0,73,0.00,,,0.00,weatherlink.com 1.10,2013-05-11 08:27:00,
2013-05-11 01:44:00,59.6,51.0,30.04,NW,322,0.0,0.0,73,0.00,,,0.00,weatherlink.com 1.10,2013-05-11 08:44:00,
2013-05-11 01:59:00,60.4,51.0,30.04,NW,322,0.0,0.0,71,0.00,,,0.00,weatherlink.com 1.10,2013-05-11 08:59:00,
2013-05-11 02:14:00,60.9,51.0,30.04,NW,322,1.0,2.0,71,0.00,,,0.00,weatherlink.com 1.10,2013-05-11 09:14:00,
2013-05-11 02:29:00,60.8,52.0,30.05,NW,319,0.0,2.0,72,0.00,,,0.00,weatherlink.com 1.10,2013-05-11 09:29:00,
2013-05-11 02:44:00,60.8,52.0,30.04,NW,319,0.0,0.0,72,0.00,,,0.00,weatherlink.com 1.10,2013-05-11 09:44:00,
2013-05-11 02:59:00,59.5,52.0,30.05,NW,319,2.0,4.0,75,0.00,,,0.00,weatherlink.com 1.10,2013-05-11 09:59:00,
2013-05-11 03:14:00,59.0,51.0,30.04,NW,322,2.0,3.0,76,0.00,,,0.00,weatherlink.com 1.10,2013-05-11 10:14:00,
2013-05-11 03:29:00,58.7,52.0,30.03,NW,322,0.0,4.0,77,0.00,,,0.00,weatherlink.com 1.10,2013-05-11 10:29:00,
2013-05-11 03:44:00,58.4,51.0,30.03,NW,323,0.0,0.0,76,0.00,,,0.00,weatherlink.com 1.10,2013-05-11 10:44:00,
2013-05-11 03:59:00,58.2,51.0,30.03,NW,322,0.0,0.0,76,0.00,,,0.00,weatherlink.com 1.10,2013-05-11 10:59:00,
2013-05-11 04:14:00,57.2,50.0,30.02,NW,315,0.0,3.0,78,0.00,,,0.00,weatherlink.com 1.10,2013-05-11 11:14:00,
2013-05-11 04:29:00,57.3,51.0,30.02,NW,316,0.0,0.0,78,0.00,,,0.00,weatherlink.com 1.10,2013-05-11 11:29:00,
2013-05-11 04:44:00,56.6,50.0,30.02,NW,316,0.0,0.0,79,0.00,,,0.00,weatherlink.com 1.10,2013-05-11 11:44:00,
2013-05-11 04:59:00,56.2,50.0,30.02,NW,315,0.0,0.0,80,0.00,,,0.00,weatherlink.com 1.10,2013-05-11 11:59:00,
2013-05-11 05:15:00,56.7,50.0,30.02,NW,315,0.0,0.0,77,0.00,,,0.00,weatherlink.com 1.10,2013-05-11 12:15:00,
2013-05-11 05:30:00,57.0,50.0,30.02,NW,315,0.0,0.0,77,0.00,,,0.00,weatherlink.com 1.10,2013-05-11 12:30:00,
2013-05-11 05:45:00,56.5,49.0,30.02,NW,311,0.0,2.0,77,0.00,,,0.00,weatherlink.com 1.10,2013-05-11 12:45:00,
2013-05-11 06:00:00,56.4,49.0,30.02,NW,309,0.0,0.0,77,0.00,,,0.00,weatherlink.com 1.10,2013-05-11 13:00:00,
2013-05-11 06:15:00,56.4,50.0,30.02,NW,309,0.0,0.0,78,0.00,,,0.00,weatherlink.com 1.10,2013-05-11 13:15:00,
2013-05-11 06:30:00,55.9,50.0,30.02,NW,309,0.0,0.0,80,0.00,,,0.00,weatherlink.com 1.10,2013-05-11 13:30:00,
2013-05-11 06:46:00,56.6,50.0,30.03,NW,309,0.0,0.0,78,0.00,,,0.00,weatherlink.com 1.10,2013-05-11 13:46:00,
2013-05-11 07:01:00,57.9,50.0,30.02,NW,309,0.0,0.0,76,0.00,,,0.00,weatherlink.com 1.10,2013-05-11 14:01:00,
2013-05-11 07:16:00,59.0,51.0,30.03,NW,309,0.0,0.0,76,0.00,,,0.00,weatherlink.com 1.10,2013-05-11 14:16:00,
2013-05-11 07:31:00,60.4,53.0,30.03,NW,309,0.0,0.0,77,0.00,,,0.00,weatherlink.com 1.10,2013-05-11 14:31:00,
2013-05-11 07:46:00,61.8,53.0,30.02,NW,309,0.0,0.0,74,0.00,,,0.00,weatherlink.com 1.10,2013-05-11 14:46:00,
2013-05-11 08:01:00,62.2,53.0,30.02,NW,309,0.0,0.0,72,0.00,,,0.00,weatherlink.com 1.10,2013-05-11 15:01:00,
2013-05-11 08:16:00,63.1,53.0,30.02,WSW,253,0.0,4.0,69,0.00,,,0.00,weatherlink.com 1.10,2013-05-11 15:16:00,
2013-05-11 08:31:00,65.6,53.0,30.01,WSW,253,0.0,0.0,65,0.00,,,0.00,weatherlink.com 1.10,2013-05-11 15:31:00,
2013-05-11 08:47:00,66.4,52.0,30.01,West,262,0.0,1.0,61,0.00,,,0.00,weatherlink.com 1.10,2013-05-11 15:47:00,
2013-05-11 09:02:00,70.0,54.0,30.01,West,260,0.0,0.0,57,0.00,,,0.00,weatherlink.com 1.10,2013-05-11 16:02:00,
2013-05-11 09:17:00,71.0,54.0,30.01,West,267,0.0,0.0,55,0.00,,,0.00,weatherlink.com 1.10,2013-05-11 16:17:00,
2013-05-11 09:32:00,73.0,56.0,30.01,West,273,0.0,2.0,55,0.00,,,0.00,weatherlink.com 1.10,2013-05-11 16:32:00,
2013-05-11 09:47:00,74.2,56.0,30.01,West,270,0.0,0.0,53,0.00,,,0.00,weatherlink.com 1.10,2013-05-11 16:47:00,
2013-05-11 10:04:00,75.2,56.0,30.00,SW,231,0.0,3.0,51,0.00,,,0.00,weatherlink.com 1.10,2013-05-11 17:04:00,
2013-05-11 10:19:00,76.2,55.0,29.99,SW,231,0.0,0.0,48,0.00,,,0.00,weatherlink.com 1.10,2013-05-11 17:19:00,
2013-05-11 10:34:00,77.6,56.0,29.99,WNW,303,0.0,3.0,48,0.00,,,0.00,weatherlink.com 1.10,2013-05-11 17:34:00,
2013-05-11 10:49:00,80.0,55.0,29.99,NW,304,0.0,0.0,43,0.00,,,0.00,weatherlink.com 1.10,2013-05-11 17:49:00,
2013-05-11 11:04:00,81.4,57.0,29.98,NNE,26,0.0,5.0,44,0.00,,,0.00,weatherlink.com 1.10,2013-05-11 18:04:00,
2013-05-11 11:19:00,83.2,57.0,29.97,NNE,26,0.0,4.0,41,0.00,,,0.00,weatherlink.com 1.10,2013-05-11 18:19:00,
2013-05-11 11:34:00,83.6,58.0,29.96,NE,35,0.0,2.0,42,0.00,,,0.00,weatherlink.com 1.10,2013-05-11 18:34:00,
2013-05-11 11:49:00,83.6,58.0,29.96,NNE,33,0.0,0.0,42,0.00,,,0.00,weatherlink.com 1.10,2013-05-11 18:49:00,
2013-05-11 12:05:00,84.1,58.0,29.95,NNE,33,0.0,2.0,41,0.00,,,0.00,weatherlink.com 1.10,2013-05-11 19:05:00,
2013-05-11 12:19:00,81.5,55.0,29.95,NNW,337,5.0,7.0,40,0.00,,,0.00,weatherlink.com 1.10,2013-05-11 19:19:00,
2013-05-11 12:35:00,80.1,55.0,29.95,NNW,334,0.0,6.0,42,0.00,,,0.00,weatherlink.com 1.10,2013-05-11 19:35:00,
2013-05-11 12:50:00,80.9,56.0,29.94,NNW,327,6.0,6.0,43,0.00,,,0.00,weatherlink.com 1.10,2013-05-11 19:50:00,
2013-05-11 13:05:00,82.9,57.0,29.93,NNW,340,3.0,7.0,42,0.00,,,0.00,weatherlink.com 1.10,2013-05-11 20:05:00,
2013-05-11 13:20:00,84.3,57.0,29.93,NNW,337,2.0,5.0,39,0.00,,,0.00,weatherlink.com 1.10,2013-05-11 20:20:00,
2013-05-11 13:35:00,85.6,58.0,29.93,NNW,339,4.0,5.0,39,0.00,,,0.00,weatherlink.com 1.10,2013-05-11 20:35:00,
2013-05-11 13:50:00,86.3,55.0,29.92,NNW,344,0.0,5.0,34,0.00,,,0.00,weatherlink.com 1.10,2013-05-11 20:50:00,
2013-05-11 14:06:00,87.1,55.0,29.91,North,355,3.0,5.0,33,0.00,,,0.00,weatherlink.com 1.10,2013-05-11 21:06:00,
2013-05-11 14:21:00,89.2,53.0,29.91,NNW,345,0.0,4.0,29,0.00,,,0.00,weatherlink.com 1.10,2013-05-11 21:21:00,
2013-05-11 14:36:00,91.8,56.0,29.90,NE,38,1.0,3.0,30,0.00,,,0.00,weatherlink.com 1.10,2013-05-11 21:36:00,
2013-05-11 14:51:00,89.8,55.0,29.90,NNW,346,4.0,6.0,31,0.00,,,0.00,weatherlink.com 1.10,2013-05-11 21:51:00,
2013-05-11 15:06:00,89.1,56.0,29.89,North,350,3.0,6.0,32,0.00,,,0.00,weatherlink.com 1.10,2013-05-11 22:06:00,
2013-05-11 15:21:00,90.5,55.0,29.89,NNW,343,0.0,10.0,30,0.00,,,0.00,weatherlink.com 1.10,2013-05-11 22:21:00,
2013-05-11 15:36:00,93.7,57.0,29.88,NNE,24,0.0,2.0,29,0.00,,,0.00,weatherlink.com 1.10,2013-05-11 22:36:00,
2013-05-11 15:52:00,93.7,55.0,29.87,NNE,28,0.0,3.0,27,0.00,,,0.00,weatherlink.com 1.10,2013-05-11 22:52:00,
2013-05-11 16:07:00,93.6,54.0,29.87,NE,41,0.0,4.0,26,0.00,,,0.00,weatherlink.com 1.10,2013-05-11 23:07:00,
2013-05-11 16:22:00,91.6,57.0,29.86,ENE,63,0.0,1.0,31,0.00,,,0.00,weatherlink.com 1.10,2013-05-11 23:22:00,
2013-05-11 16:37:00,92.3,57.0,29.86,North,11,4.0,5.0,30,0.00,,,0.00,weatherlink.com 1.10,2013-05-11 23:37:00,
2013-05-11 16:52:00,93.1,57.0,29.86,NNE,22,0.0,5.0,30,0.00,,,0.00,weatherlink.com 1.10,2013-05-11 23:52:00,
2013-05-11 17:07:00,91.5,56.0,29.85,NNE,20,1.0,6.0,30,0.00,,,0.00,weatherlink.com 1.10,2013-05-12 00:07:00,
2013-05-11 17:23:00,89.7,62.0,29.85,NNE,19,0.0,0.0,39,0.00,,,0.00,weatherlink.com 1.10,2013-05-12 00:23:00,
2013-05-11 17:37:00,88.7,53.0,29.85,NNE,19,0.0,6.0,29,0.00,,,0.00,weatherlink.com 1.10,2013-05-12 00:37:00,
2013-05-11 17:53:00,87.1,52.0,29.85,NNE,16,0.0,4.0,30,0.00,,,0.00,weatherlink.com 1.10,2013-05-12 00:53:00,
2013-05-11 18:08:00,85.1,54.0,29.85,NNW,331,4.0,7.0,34,0.00,,,0.00,weatherlink.com 1.10,2013-05-12 01:08:00,
2013-05-11 18:23:00,81.7,56.0,29.85,NW,325,4.0,7.0,41,0.00,,,0.00,weatherlink.com 1.10,2013-05-12 01:23:00,
2013-05-11 18:38:00,80.3,55.0,29.85,NW,319,3.0,9.0,42,0.00,,,0.00,weatherlink.com 1.10,2013-05-12 01:38:00,
2013-05-11 18:53:00,79.9,55.0,29.86,NW,324,7.0,7.0,43,0.00,,,0.00,weatherlink.com 1.10,2013-05-12 01:53:00,
2013-05-11 19:08:00,79.6,56.0,29.86,NW,322,6.0,8.0,44,0.00,,,0.00,weatherlink.com 1.10,2013-05-12 02:08:00,
2013-05-11 19:25:00,79.3,56.0,29.85,NW,323,3.0,8.0,45,0.00,,,0.00,weatherlink.com 1.10,2013-05-12 02:25:00,
2013-05-11 19:40:00,78.0,56.0,29.85,NW,323,1.0,4.0,46,0.00,,,0.00,weatherlink.com 1.10,2013-05-12 02:40:00,
2013-05-11 19:55:00,76.9,55.0,29.86,NW,324,0.0,3.0,47,0.00,,,0.00,weatherlink.com 1.10,2013-05-12 02:55:00,
2013-05-11 20:10:00,76.7,54.0,29.86,NNW,329,1.0,3.0,45,0.00,,,0.00,weatherlink.com 1.10,2013-05-12 03:10:00,
2013-05-11 20:25:00,74.6,57.0,29.86,NNW,330,0.0,0.0,54,0.00,,,0.00,weatherlink.com 1.10,2013-05-12 03:25:00,
2013-05-11 20:40:00,72.5,55.0,29.87,NNW,330,0.0,0.0,55,0.00,,,0.00,weatherlink.com 1.10,2013-05-12 03:40:00,
2013-05-11 20:55:00,70.8,55.0,29.87,NNW,330,0.0,0.0,58,0.00,,,0.00,weatherlink.com 1.10,2013-05-12 03:55:00,
2013-05-11 21:10:00,70.1,54.0,29.88,NNW,330,0.0,0.0,58,0.00,,,0.00,weatherlink.com 1.10,2013-05-12 04:10:00,
2013-05-11 21:25:00,69.2,55.0,29.88,NNW,330,0.0,0.0,62,0.00,,,0.00,weatherlink.com 1.10,2013-05-12 04:25:00,
2013-05-11 21:40:00,68.1,55.0,29.88,NNW,330,0.0,0.0,63,0.00,,,0.00,weatherlink.com 1.10,2013-05-12 04:40:00,
2013-05-11 21:55:00,66.9,54.0,29.89,NNE,17,0.0,0.0,64,0.00,,,0.00,weatherlink.com 1.10,2013-05-12 04:55:00,
2013-05-11 22:10:00,66.9,55.0,29.89,NNE,17,0.0,0.0,65,0.00,,,0.00,weatherlink.com 1.10,2013-05-12 05:10:00,
2013-05-11 22:25:00,66.7,53.0,29.89,NNE,17,0.0,0.0,62,0.00,,,0.00,weatherlink.com 1.10,2013-05-12 05:25:00,
2013-05-11 22:41:00,66.8,55.0,29.89,NNE,17,0.0,0.0,66,0.00,,,0.00,weatherlink.com 1.10,2013-05-12 05:41:00,
2013-05-11 22:55:00,66.0,54.0,29.89,NNE,17,0.0,0.0,65,0.00,,,0.00,weatherlink.com 1.10,2013-05-12 05:55:00,
2013-05-11 23:11:00,66.2,53.0,29.90,NNE,17,0.0,0.0,63,0.00,,,0.00,weatherlink.com 1.10,2013-05-12 06:11:00,
2013-05-11 23:26:00,66.9,51.0,29.90,NNE,17,0.0,0.0,58,0.00,,,0.00,weatherlink.com 1.10,2013-05-12 06:26:00,
2013-05-11 23:41:00,67.3,52.0,29.91,NNE,17,0.0,0.0,59,0.00,,,0.00,weatherlink.com 1.10,2013-05-12 06:41:00,
2013-05-11 23:56:00,68.0,52.0,29.91,NNE,17,0.0,0.0,58,0.00,,,0.00,weatherlink.com 1.10,2013-05-12 06:56:00,